Time;durP1;ratioP1;P1;durP2;ratioP2;P2;SDS_P1;SDS_P2;PMS_P1;PMS_P2;Temp;Humidity;BMP_temperature;BMP_pressure;BME280_temperature;BME280_humidity;BME280_pressure;Samples;Min_cycle;Max_cycle;Signal;HPM_P1;HPM_P2
2023/06/15 00:01:58;;;;;;;5.75;3.03;;;;;;;;;;5080064;28;20562;-71
2023/06/15 00:04:23;;;;;;;5.55;3.72;;;;;;;;;;5077472;28;20246;-71
2023/06/15 00:06:49;;;;;;;9.20;3.70;;;;;;;;;;5081660;28;20188;-71
2023/06/15 00:09:14;;;;;;;8.18;3.45;;;;;;;;;;5083156;28;20188;-72
2023/06/15 00:11:40;;;;;;;5.43;3.30;;;;;;;;;;5079275;28;20288;-72
2023/06/15 00:14:07;;;;;;;9.70;3.25;;;;;;;;;;5067462;28;20189;-72
2023/06/15 00:16:33;;;;;;;8.60;3.83;;;;;;;;;;5087679;28;20708;-72
2023/06/15 00:18:59;;;;;;;5.90;3.13;;;;;;;;;;5075742;28;20318;-72
2023/06/15 00:21:24;;;;;;;7.22;3.33;;;;;;;;;;5085408;28;20212;-72
2023/06/15 00:23:50;;;;;;;6.63;3.53;;;;;;;;;;5087220;28;20192;-72
2023/06/15 00:26:15;;;;;;;6.50;3.25;;;;;;;;;;5076187;28;20189;-72
2023/06/15 00:28:41;;;;;;;3.55;3.00;;;;;;;;;;5072656;28;20688;-72
2023/06/15 00:31:06;;;;;;;6.75;4.10;;;;;;;;;;5081580;28;20237;-72
2023/06/15 00:33:31;;;;;;;5.82;3.35;;;;;;;;;;5064625;28;20204;-72
2023/06/15 00:35:58;;;;;;;4.15;3.10;;;;;;;;;;5072832;28;20279;-72
2023/06/15 00:38:24;;;;;;;6.40;4.10;;;;;;;;;;5087009;28;20195;-71
2023/06/15 00:40:49;;;;;;;5.00;3.60;;;;;;;;;;5083902;28;20180;-71
2023/06/15 00:43:15;;;;;;;7.45;3.42;;;;;;;;;;5084921;28;20204;-72
2023/06/15 00:45:40;;;;;;;4.35;3.40;;;;;;;;;;5082215;28;20289;-72
2023/06/15 00:48:05;;;;;;;4.05;3.63;;;;;;;;;;5088221;28;20297;-71
2023/06/15 00:50:31;;;;;;;7.15;3.60;;;;;;;;;;5079298;28;20184;-71
2023/06/15 00:53:03;;;;;;;5.45;3.53;;;;;;;;;;5080657;28;20259;-71
2023/06/15 00:55:31;;;;;;;6.93;3.75;;;;;;;;;;5077145;28;20201;-72
2023/06/15 00:57:57;;;;;;;7.13;4.22;;;;;;;;;;5088089;28;20587;-71
2023/06/15 01:00:23;;;;;;;5.32;4.28;;;;;;;;;;5077623;28;20231;-71
2023/06/15 01:02:50;;;;;;;5.45;4.05;;;;;;;;;;5074424;28;20200;-71
2023/06/15 01:05:16;;;;;;;6.22;3.65;;;;;;;;;;5072092;28;20184;-72
2023/06/15 01:07:47;;;;;;;7.32;4.05;;;;;;;;;;5076799;28;20192;-72
2023/06/15 01:10:14;;;;;;;7.45;3.95;;;;;;;;;;5076405;28;20275;-72
2023/06/15 01:12:41;;;;;;;5.53;4.30;;;;;;;;;;5074345;28;20652;-72
2023/06/15 01:15:08;;;;;;;6.28;3.95;;;;;;;;;;5082359;28;20200;-72
2023/06/15 01:17:34;;;;;;;5.32;3.80;;;;;;;;;;5084274;28;20202;-72
2023/06/15 01:20:04;;;;;;;7.90;4.70;;;;;;;;;;5087469;28;20710;-72
2023/06/15 01:23:01;;;;;;;5.97;3.88;;;;;;;;;;5087043;28;20244;-72
2023/06/15 01:25:37;;;;;;;7.93;3.90;;;;;;;;;;5075332;28;20736;-71
2023/06/15 01:28:05;;;;;;;5.97;4.13;;;;;;;;;;5068620;28;20557;-71
2023/06/15 01:30:40;;;;;;;5.50;4.03;;;;;;;;;;5085860;28;20673;-71
2023/06/15 01:33:05;;;;;;;10.50;4.07;;;;;;;;;;5087458;28;20183;-72
2023/06/15 01:35:31;;;;;;;10.18;4.22;;;;;;;;;;5068843;28;20189;-72
2023/06/15 01:37:56;;;;;;;7.80;3.88;;;;;;;;;;5085249;28;20196;-72
2023/06/15 01:40:22;;;;;;;10.80;4.30;;;;;;;;;;5080739;28;20220;-72
2023/06/15 01:42:49;;;;;;;8.18;4.00;;;;;;;;;;5069209;28;20606;-72
2023/06/15 01:45:15;;;;;;;6.75;4.45;;;;;;;;;;5080965;28;20222;-72
2023/06/15 01:47:42;;;;;;;6.10;3.72;;;;;;;;;;5083208;28;20663;-72
2023/06/15 01:50:09;;;;;;;5.03;3.80;;;;;;;;;;5087419;28;20438;-72
2023/06/15 01:52:35;;;;;;;5.97;4.30;;;;;;;;;;5086628;28;20176;-72
2023/06/15 01:55:00;;;;;;;8.93;3.90;;;;;;;;;;5077563;28;20188;-72
2023/06/15 01:57:26;;;;;;;9.38;4.32;;;;;;;;;;5085808;28;20189;-72
2023/06/15 01:59:54;;;;;;;6.78;4.10;;;;;;;;;;5086590;28;20207;-72
2023/06/15 02:02:20;;;;;;;7.82;3.95;;;;;;;;;;5084996;28;20232;-72
2023/06/15 02:04:45;;;;;;;9.25;3.90;;;;;;;;;;5079490;28;20233;-72
2023/06/15 02:07:11;;;;;;;7.32;4.85;;;;;;;;;;5085769;28;20208;-72
2023/06/15 02:09:36;;;;;;;7.40;4.05;;;;;;;;;;5082903;28;20181;-72
2023/06/15 02:12:02;;;;;;;5.70;4.60;;;;;;;;;;5074859;28;20223;-72
2023/06/15 02:14:27;;;;;;;9.45;4.18;;;;;;;;;;5075441;28;20355;-72
2023/06/15 02:16:53;;;;;;;7.82;4.53;;;;;;;;;;5090727;28;20637;-71
2023/06/15 02:19:22;;;;;;;5.43;3.97;;;;;;;;;;5090480;28;20295;-71
2023/06/15 02:21:48;;;;;;;7.20;4.50;;;;;;;;;;5072401;28;20657;-71
2023/06/15 02:24:15;;;;;;;4.93;3.97;;;;;;;;;;5083849;28;20196;-72
2023/06/15 02:26:40;;;;;;;10.80;4.57;;;;;;;;;;5089290;28;20203;-72
2023/06/15 02:29:06;;;;;;;6.40;4.65;;;;;;;;;;5089726;28;20184;-72
2023/06/15 02:31:31;;;;;;;7.43;4.30;;;;;;;;;;5083097;28;20285;-71
2023/06/15 02:33:57;;;;;;;7.78;4.85;;;;;;;;;;5080555;28;20645;-72
2023/06/15 02:36:22;;;;;;;6.57;4.57;;;;;;;;;;5074576;28;20188;-72
2023/06/15 02:38:48;;;;;;;7.40;4.68;;;;;;;;;;5083786;28;20232;-71
2023/06/15 02:41:14;;;;;;;8.00;4.82;;;;;;;;;;5089101;28;20196;-71
2023/06/15 02:43:40;;;;;;;7.75;4.40;;;;;;;;;;5084303;28;20198;-72
2023/06/15 02:46:05;;;;;;;6.35;4.90;;;;;;;;;;5090780;28;20184;-71
2023/06/15 02:48:30;;;;;;;6.97;4.57;;;;;;;;;;5076160;28;20283;-71
2023/06/15 02:50:56;;;;;;;8.73;4.72;;;;;;;;;;5082344;28;20749;-71
2023/06/15 02:53:22;;;;;;;10.93;4.60;;;;;;;;;;5087956;28;20188;-71
2023/06/15 02:55:47;;;;;;;11.18;4.60;;;;;;;;;;5081018;28;20592;-71
2023/06/15 02:58:13;;;;;;;7.30;4.50;;;;;;;;;;5082515;28;20188;-72
2023/06/15 03:00:40;;;;;;;5.75;4.50;;;;;;;;;;5075428;28;20247;-72
2023/06/15 03:03:07;;;;;;;7.45;4.60;;;;;;;;;;5079667;28;20215;-72
2023/06/15 03:05:33;;;;;;;8.52;5.03;;;;;;;;;;5069731;28;20601;-72
2023/06/15 03:07:58;;;;;;;10.48;4.78;;;;;;;;;;5081392;28;20198;-72
2023/06/15 03:10:24;;;;;;;9.23;4.70;;;;;;;;;;5076283;28;20234;-72
2023/06/15 03:12:49;;;;;;;8.52;4.63;;;;;;;;;;5078859;28;20194;-72
2023/06/15 03:15:16;;;;;;;7.32;5.10;;;;;;;;;;5072828;28;20692;-72
2023/06/15 03:17:42;;;;;;;12.15;5.85;;;;;;;;;;5083307;28;20202;-72
2023/06/15 03:20:10;;;;;;;10.13;5.50;;;;;;;;;;5085894;28;20275;-71
2023/06/15 03:22:36;;;;;;;10.02;4.97;;;;;;;;;;5071891;28;20208;-72
2023/06/15 03:25:03;;;;;;;12.15;5.70;;;;;;;;;;5070162;28;20191;-72
2023/06/15 03:27:32;;;;;;;11.88;5.85;;;;;;;;;;5078265;28;20191;-72
2023/06/15 03:30:01;;;;;;;8.40;6.18;;;;;;;;;;5089522;28;20691;-72
2023/06/15 03:32:27;;;;;;;9.98;5.70;;;;;;;;;;5088667;28;20245;-72
2023/06/15 03:34:57;;;;;;;11.35;5.45;;;;;;;;;;5081302;28;20245;-72
2023/06/15 03:37:22;;;;;;;8.98;5.68;;;;;;;;;;5073138;28;20228;-72
2023/06/15 03:39:48;;;;;;;12.93;5.78;;;;;;;;;;5084207;28;20321;-72
2023/06/15 03:42:13;;;;;;;12.02;5.35;;;;;;;;;;5076479;28;20207;-72
2023/06/15 03:44:38;;;;;;;9.18;5.55;;;;;;;;;;5089037;28;20718;-72
2023/06/15 03:47:04;;;;;;;9.15;6.10;;;;;;;;;;5086617;28;20215;-72
2023/06/15 03:49:29;;;;;;;8.88;6.60;;;;;;;;;;5086441;28;20670;-72
2023/06/15 03:51:55;;;;;;;10.20;6.28;;;;;;;;;;5089360;28;20188;-72
2023/06/15 03:54:21;;;;;;;9.68;6.07;;;;;;;;;;5079586;28;20571;-72
2023/06/15 03:56:46;;;;;;;12.52;6.18;;;;;;;;;;5069126;28;20176;-71
2023/06/15 03:59:11;;;;;;;10.70;6.05;;;;;;;;;;5085012;28;20215;-71
2023/06/15 04:01:37;;;;;;;9.48;5.85;;;;;;;;;;5085251;28;20227;-71
2023/06/15 04:04:02;;;;;;;12.98;6.70;;;;;;;;;;5078449;28;20186;-71
2023/06/15 04:06:29;;;;;;;7.03;5.97;;;;;;;;;;5083397;28;20275;-71
2023/06/15 04:08:55;;;;;;;9.48;6.50;;;;;;;;;;5073070;28;20180;-72
2023/06/15 04:11:20;;;;;;;9.05;5.88;;;;;;;;;;5077871;28;20192;-73
2023/06/15 04:13:46;;;;;;;7.60;6.22;;;;;;;;;;5074819;28;20192;-73
2023/06/15 04:16:17;;;;;;;7.43;6.07;;;;;;;;;;5077430;28;20531;-73
2023/06/15 04:18:45;;;;;;;13.82;6.32;;;;;;;;;;5075192;28;20328;-71
2023/06/15 04:21:11;;;;;;;11.38;6.72;;;;;;;;;;5068162;28;20297;-72
2023/06/15 04:23:36;;;;;;;10.30;6.32;;;;;;;;;;5069038;28;20191;-72
2023/06/15 04:26:02;;;;;;;9.65;5.95;;;;;;;;;;5086333;28;20180;-72
2023/06/15 04:28:28;;;;;;;8.90;6.60;;;;;;;;;;5084412;28;20271;-72
2023/06/15 04:31:07;;;;;;;8.05;6.35;;;;;;;;;;5081599;28;20275;-72
2023/06/15 04:33:32;;;;;;;7.63;5.65;;;;;;;;;;5070329;28;20184;-72
2023/06/15 04:35:58;;;;;;;9.05;5.65;;;;;;;;;;5076846;28;20196;-72
2023/06/15 04:38:23;;;;;;;9.32;5.88;;;;;;;;;;5078477;28;20248;-71
2023/06/15 04:40:48;;;;;;;9.45;5.88;;;;;;;;;;5082324;28;20204;-72
2023/06/15 04:43:14;;;;;;;10.65;6.22;;;;;;;;;;5080119;28;20329;-73
2023/06/15 04:45:39;;;;;;;7.18;5.35;;;;;;;;;;5086263;28;20188;-73
2023/06/15 04:48:05;;;;;;;6.78;5.50;;;;;;;;;;5082907;28;20293;-73
2023/06/15 04:50:31;;;;;;;11.60;6.47;;;;;;;;;;5084562;28;20196;-72
2023/06/15 04:52:57;;;;;;;9.95;6.38;;;;;;;;;;5085511;28;20245;-73
2023/06/15 04:55:23;;;;;;;11.40;6.28;;;;;;;;;;5080566;28;20659;-73
2023/06/15 04:57:48;;;;;;;10.93;6.72;;;;;;;;;;5080762;28;20200;-73
2023/06/15 05:00:15;;;;;;;9.68;6.13;;;;;;;;;;5088076;28;20275;-72
2023/06/15 05:02:40;;;;;;;14.65;7.07;;;;;;;;;;5087746;28;20219;-71
2023/06/15 05:05:06;;;;;;;13.32;6.63;;;;;;;;;;5084283;28;20269;-72
2023/06/15 05:07:31;;;;;;;12.05;6.50;;;;;;;;;;5081777;28;20203;-71
2023/06/15 05:09:56;;;;;;;10.80;6.03;;;;;;;;;;5074021;28;20193;-71
2023/06/15 05:12:22;;;;;;;11.80;5.65;;;;;;;;;;5069677;28;20671;-73
2023/06/15 05:14:47;;;;;;;8.77;6.38;;;;;;;;;;5070307;28;20196;-72
2023/06/15 05:17:13;;;;;;;12.00;6.57;;;;;;;;;;5078711;28;20196;-73
2023/06/15 05:19:38;;;;;;;13.98;7.10;;;;;;;;;;5077635;28;20193;-71
2023/06/15 05:22:05;;;;;;;8.43;6.40;;;;;;;;;;5072922;28;20631;-72
2023/06/15 05:24:31;;;;;;;11.82;7.20;;;;;;;;;;5081694;28;20185;-72
2023/06/15 05:26:56;;;;;;;11.60;6.93;;;;;;;;;;5086240;28;20248;-72
2023/06/15 05:29:22;;;;;;;9.65;7.43;;;;;;;;;;5074529;28;20563;-71
2023/06/15 05:31:47;;;;;;;11.82;7.03;;;;;;;;;;5082047;28;20176;-72
2023/06/15 05:34:13;;;;;;;10.73;6.97;;;;;;;;;;5071793;28;20555;-70
2023/06/15 05:36:38;;;;;;;10.60;6.35;;;;;;;;;;5077791;28;20212;-71
2023/06/15 05:39:04;;;;;;;14.30;6.90;;;;;;;;;;5079941;28;20227;-71
2023/06/15 05:41:30;;;;;;;15.23;7.32;;;;;;;;;;5085435;28;20353;-72
2023/06/15 05:43:55;;;;;;;10.73;6.45;;;;;;;;;;5079708;28;20643;-72
2023/06/15 05:46:21;;;;;;;12.30;7.10;;;;;;;;;;5072095;28;20644;-73
2023/06/15 05:48:47;;;;;;;10.88;7.00;;;;;;;;;;5083172;28;20644;-72
2023/06/15 05:51:12;;;;;;;13.90;6.88;;;;;;;;;;5081298;28;20231;-72
2023/06/15 05:53:37;;;;;;;11.35;7.10;;;;;;;;;;5077602;28;20192;-72
2023/06/15 05:56:03;;;;;;;9.50;6.32;;;;;;;;;;5092400;28;20190;-72
2023/06/15 05:58:29;;;;;;;13.52;7.57;;;;;;;;;;5083053;28;20204;-73
2023/06/15 06:00:54;;;;;;;13.30;6.80;;;;;;;;;;5076728;28;20205;-73
2023/06/15 06:03:20;;;;;;;12.05;6.57;;;;;;;;;;5090020;28;20207;-72
2023/06/15 06:05:45;;;;;;;11.20;6.35;;;;;;;;;;5089198;28;20651;-72
2023/06/15 06:08:11;;;;;;;12.20;6.70;;;;;;;;;;5088508;28;20277;-72
2023/06/15 06:10:36;;;;;;;12.23;6.40;;;;;;;;;;5074897;28;20219;-72
2023/06/15 06:13:01;;;;;;;12.52;6.75;;;;;;;;;;5076101;28;20188;-72
2023/06/15 06:15:27;;;;;;;8.45;5.97;;;;;;;;;;5081122;28;20192;-72
2023/06/15 06:17:52;;;;;;;8.38;5.80;;;;;;;;;;5085017;28;20180;-72
2023/06/15 06:20:18;;;;;;;10.68;6.32;;;;;;;;;;5080845;28;20287;-72
2023/06/15 06:22:43;;;;;;;14.43;6.03;;;;;;;;;;5085425;28;20216;-71
2023/06/15 06:25:08;;;;;;;7.88;5.28;;;;;;;;;;5072461;28;20709;-71
2023/06/15 06:27:35;;;;;;;7.05;4.93;;;;;;;;;;5071421;28;20197;-73
2023/06/15 06:30:01;;;;;;;9.35;5.00;;;;;;;;;;5083614;28;20196;-71
2023/06/15 06:32:26;;;;;;;18.20;5.28;;;;;;;;;;5085423;28;20420;-71
2023/06/15 06:34:51;;;;;;;10.68;5.22;;;;;;;;;;5073671;28;20188;-71
2023/06/15 06:37:17;;;;;;;8.95;4.50;;;;;;;;;;5079073;28;20199;-71
2023/06/15 06:39:42;;;;;;;7.47;4.47;;;;;;;;;;5067596;28;20286;-71
2023/06/15 06:42:08;;;;;;;6.07;4.03;;;;;;;;;;5074139;28;20223;-71
2023/06/15 06:44:33;;;;;;;8.52;4.80;;;;;;;;;;5081858;28;20241;-70
2023/06/15 06:47:01;;;;;;;8.40;4.50;;;;;;;;;;5078941;28;20324;-70
2023/06/15 06:49:26;;;;;;;17.05;5.18;;;;;;;;;;5081398;28;20195;-71
2023/06/15 06:51:52;;;;;;;6.13;4.47;;;;;;;;;;5069857;28;20192;-71
2023/06/15 06:54:17;;;;;;;14.73;5.20;;;;;;;;;;5081491;28;20587;-71
2023/06/15 06:56:42;;;;;;;14.25;4.72;;;;;;;;;;5080980;28;20619;-71
2023/06/15 06:59:08;;;;;;;9.68;4.40;;;;;;;;;;5081776;28;20186;-70
2023/06/15 07:01:33;;;;;;;11.88;4.43;;;;;;;;;;5080185;28;20223;-70
2023/06/15 07:03:59;;;;;;;7.30;4.05;;;;;;;;;;5083769;28;20200;-71
2023/06/15 07:06:24;;;;;;;5.88;4.07;;;;;;;;;;5072763;28;20189;-70
2023/06/15 07:08:50;;;;;;;9.55;4.28;;;;;;;;;;5087841;28;20675;-71
2023/06/15 07:11:15;;;;;;;9.32;4.30;;;;;;;;;;5077579;28;20196;-71
2023/06/15 07:13:40;;;;;;;7.20;3.95;;;;;;;;;;5083856;28;20791;-70
2023/06/15 07:16:06;;;;;;;8.20;4.07;;;;;;;;;;5081902;28;20191;-71
2023/06/15 07:18:32;;;;;;;7.82;3.42;;;;;;;;;;5073775;28;20345;-71
2023/06/15 07:20:57;;;;;;;5.30;4.47;;;;;;;;;;5072257;28;20192;-71
2023/06/15 07:23:23;;;;;;;9.75;3.70;;;;;;;;;;5081688;28;20204;-71
2023/06/15 07:25:51;;;;;;;12.20;4.20;;;;;;;;;;5081060;28;20286;-71
2023/06/15 07:28:16;;;;;;;8.23;4.50;;;;;;;;;;5072536;28;20351;-70
2023/06/15 07:30:43;;;;;;;9.07;3.55;;;;;;;;;;5078142;28;20314;-72
2023/06/15 07:33:09;;;;;;;7.97;4.20;;;;;;;;;;5078807;28;20207;-70
2023/06/15 07:35:35;;;;;;;11.93;4.40;;;;;;;;;;5086755;28;20192;-70
2023/06/15 07:38:00;;;;;;;7.25;3.55;;;;;;;;;;5078071;28;20203;-70
2023/06/15 07:40:25;;;;;;;11.35;4.07;;;;;;;;;;5066681;28;20233;-71
2023/06/15 07:42:51;;;;;;;8.60;3.58;;;;;;;;;;5073766;28;20212;-70
2023/06/15 07:45:16;;;;;;;10.05;4.25;;;;;;;;;;5077243;28;20558;-68
2023/06/15 07:47:42;;;;;;;10.68;3.67;;;;;;;;;;5088019;28;20212;-70
2023/06/15 07:50:07;;;;;;;11.98;3.90;;;;;;;;;;5072346;28;20208;-70
2023/06/15 07:52:33;;;;;;;5.78;3.45;;;;;;;;;;5068876;28;20196;-70
2023/06/15 07:54:59;;;;;;;10.40;3.45;;;;;;;;;;5079349;28;20188;-70
2023/06/15 07:57:25;;;;;;;6.40;3.40;;;;;;;;;;5077176;28;20188;-71
2023/06/15 07:59:50;;;;;;;8.20;3.55;;;;;;;;;;5073855;28;20189;-70
2023/06/15 08:02:16;;;;;;;9.75;3.83;;;;;;;;;;5080395;28;20231;-70
2023/06/15 08:04:41;;;;;;;8.77;3.22;;;;;;;;;;5079810;28;20268;-70
2023/06/15 08:07:07;;;;;;;8.43;3.60;;;;;;;;;;5077349;28;20593;-70
2023/06/15 08:09:32;;;;;;;7.95;3.38;;;;;;;;;;5071019;28;20191;-70
2023/06/15 08:11:58;;;;;;;4.50;3.38;;;;;;;;;;5074077;28;20199;-68
2023/06/15 08:14:23;;;;;;;7.22;3.60;;;;;;;;;;5079809;28;20497;-69
2023/06/15 08:16:48;;;;;;;7.25;3.42;;;;;;;;;;5076937;28;20557;-70
2023/06/15 08:19:14;;;;;;;6.07;3.15;;;;;;;;;;5077373;28;20188;-70
2023/06/15 08:21:41;;;;;;;4.03;3.05;;;;;;;;;;5073542;28;20212;-70
2023/06/15 08:24:07;;;;;;;8.98;3.10;;;;;;;;;;5077608;28;20180;-70
2023/06/15 08:26:32;;;;;;;4.22;3.30;;;;;;;;;;5071032;28;20207;-70
2023/06/15 08:28:58;;;;;;;6.18;3.00;;;;;;;;;;5073650;28;20399;-70
2023/06/15 08:31:23;;;;;;;7.78;2.95;;;;;;;;;;5081942;28;20180;-70
2023/06/15 08:33:49;;;;;;;4.20;3.00;;;;;;;;;;5083560;28;20218;-70
2023/06/15 08:36:15;;;;;;;6.28;3.15;;;;;;;;;;5079515;28;20195;-71
2023/06/15 08:38:41;;;;;;;4.45;2.88;;;;;;;;;;5077679;28;20285;-70
2023/06/15 08:41:07;;;;;;;4.22;2.78;;;;;;;;;;5073262;28;20193;-71
2023/06/15 08:43:33;;;;;;;4.63;2.92;;;;;;;;;;5085159;28;20235;-70
2023/06/15 08:45:59;;;;;;;6.85;3.22;;;;;;;;;;5073565;28;20638;-70
2023/06/15 08:48:27;;;;;;;8.88;2.97;;;;;;;;;;5086093;28;20655;-71
2023/06/15 08:50:54;;;;;;;7.13;2.72;;;;;;;;;;5070203;28;20739;-70
2023/06/15 08:53:21;;;;;;;3.20;2.60;;;;;;;;;;5080051;28;20538;-70
2023/06/15 08:55:47;;;;;;;6.43;2.90;;;;;;;;;;5072047;28;20185;-69
2023/06/15 08:58:12;;;;;;;3.92;2.80;;;;;;;;;;5071579;28;20253;-70
2023/06/15 09:00:37;;;;;;;6.72;3.20;;;;;;;;;;5083181;28;20710;-71
2023/06/15 09:03:05;;;;;;;6.38;2.85;;;;;;;;;;5073507;28;20204;-70
2023/06/15 09:05:31;;;;;;;5.93;2.88;;;;;;;;;;5094977;28;20660;-70
2023/06/15 09:07:58;;;;;;;6.30;3.00;;;;;;;;;;5080432;28;20185;-71
2023/06/15 09:10:24;;;;;;;8.10;2.92;;;;;;;;;;5083493;28;20194;-69
2023/06/15 09:12:52;;;;;;;4.78;2.47;;;;;;;;;;5072738;28;20181;-69
2023/06/15 09:15:19;;;;;;;3.97;2.72;;;;;;;;;;5075292;28;20229;-70
2023/06/15 09:17:46;;;;;;;6.75;2.60;;;;;;;;;;5078709;28;20212;-69
2023/06/15 09:20:12;;;;;;;3.88;2.60;;;;;;;;;;5077724;28;20306;-70
2023/06/15 09:22:42;;;;;;;5.13;2.88;;;;;;;;;;5098460;28;20261;-68
2023/06/15 09:25:21;;;;;;;8.95;3.00;;;;;;;;;;5077231;28;20527;-69
2023/06/15 09:27:57;;;;;;;6.05;2.90;;;;;;;;;;5082767;28;20565;-69
2023/06/15 09:30:36;;;;;;;4.97;2.72;;;;;;;;;;5076094;28;20200;-69
2023/06/15 09:33:15;;;;;;;5.50;3.10;;;;;;;;;;5078274;28;20184;-70
2023/06/15 09:35:57;;;;;;;5.65;2.50;;;;;;;;;;5085689;28;20183;-70
2023/06/15 09:38:23;;;;;;;6.25;3.03;;;;;;;;;;5084455;28;20201;-70
2023/06/15 09:40:49;;;;;;;6.15;2.90;;;;;;;;;;5086790;28;20687;-70
2023/06/15 09:43:16;;;;;;;7.53;2.67;;;;;;;;;;5086307;28;20803;-71
2023/06/15 09:45:54;;;;;;;8.63;3.13;;;;;;;;;;5085871;28;20184;-70
2023/06/15 09:48:20;;;;;;;6.07;2.85;;;;;;;;;;5087818;28;20674;-70
2023/06/15 09:50:50;;;;;;;9.05;3.03;;;;;;;;;;5085199;28;20232;-70
2023/06/15 09:53:16;;;;;;;4.82;2.85;;;;;;;;;;5071243;28;20196;-69
2023/06/15 09:55:44;;;;;;;5.30;3.00;;;;;;;;;;5087180;28;20215;-70
2023/06/15 09:58:10;;;;;;;5.47;2.67;;;;;;;;;;5090162;28;20195;-70
2023/06/15 10:00:35;;;;;;;7.93;2.70;;;;;;;;;;5090042;28;20295;-67
2023/06/15 10:03:03;;;;;;;7.18;2.90;;;;;;;;;;5072220;28;20615;-69
2023/06/15 10:05:32;;;;;;;7.68;3.10;;;;;;;;;;5084376;28;20203;-69
2023/06/15 10:08:01;;;;;;;4.10;3.25;;;;;;;;;;5089260;28;20184;-69
2023/06/15 10:10:28;;;;;;;8.50;2.95;;;;;;;;;;5072738;28;20612;-68
2023/06/15 10:12:55;;;;;;;4.65;3.00;;;;;;;;;;5072396;28;20191;-68
2023/06/15 10:15:22;;;;;;;4.80;2.60;;;;;;;;;;5073090;28;20192;-72
2023/06/15 10:17:52;;;;;;;5.32;2.88;;;;;;;;;;5083519;28;20249;-70
2023/06/15 10:20:19;;;;;;;4.60;2.95;;;;;;;;;;5077750;28;20192;-69
2023/06/15 10:23:00;;;;;;;8.05;3.03;;;;;;;;;;5084423;28;20757;-70
2023/06/15 10:25:27;;;;;;;6.68;2.65;;;;;;;;;;5082074;28;20192;-69
2023/06/15 10:27:54;;;;;;;5.65;3.10;;;;;;;;;;5087348;28;20685;-69
2023/06/15 10:30:40;;;;;;;6.68;3.50;;;;;;;;;;5076982;28;20247;-69
2023/06/15 10:33:22;;;;;;;6.57;3.28;;;;;;;;;;5089117;28;20191;-69
2023/06/15 10:35:53;;;;;;;4.70;3.40;;;;;;;;;;5084402;28;20560;-69
2023/06/15 10:38:33;;;;;;;7.88;3.15;;;;;;;;;;5085379;28;20317;-70
2023/06/15 10:40:59;;;;;;;4.32;3.30;;;;;;;;;;5075375;28;20199;-70
2023/06/15 10:43:29;;;;;;;3.67;3.13;;;;;;;;;;5072119;28;20710;-67
2023/06/15 10:45:55;;;;;;;7.25;3.45;;;;;;;;;;5089507;28;20184;-69
2023/06/15 10:48:23;;;;;;;5.10;3.45;;;;;;;;;;5090303;28;20184;-70
2023/06/15 10:50:51;;;;;;;5.97;3.50;;;;;;;;;;5089935;28;20325;-69
2023/06/15 10:53:25;;;;;;;4.22;3.10;;;;;;;;;;5091474;28;20180;-70
2023/06/15 10:55:55;;;;;;;6.30;3.28;;;;;;;;;;5089954;28;20194;-69
2023/06/15 10:58:21;;;;;;;4.63;3.13;;;;;;;;;;5089325;28;20188;-70
2023/06/15 11:01:06;;;;;;;5.40;3.13;;;;;;;;;;5090010;28;20700;-70
2023/06/15 11:03:33;;;;;;;7.72;3.38;;;;;;;;;;5086480;28;20207;-69
2023/06/15 11:06:03;;;;;;;6.97;3.88;;;;;;;;;;5088179;28;20191;-69
2023/06/15 11:08:53;;;;;;;5.70;3.60;;;;;;;;;;5082656;28;20177;-70
2023/06/15 11:11:26;;;;;;;4.82;4.07;;;;;;;;;;5083708;28;20224;-69
2023/06/15 11:13:57;;;;;;;9.98;3.78;;;;;;;;;;5088065;28;20267;-69
2023/06/15 11:16:38;;;;;;;5.15;3.38;;;;;;;;;;5085101;28;20649;-69
2023/06/15 11:19:15;;;;;;;6.68;4.03;;;;;;;;;;5086980;28;20184;-69
2023/06/15 11:21:56;;;;;;;5.13;3.38;;;;;;;;;;5085180;28;20192;-72
2023/06/15 11:24:23;;;;;;;4.80;3.70;;;;;;;;;;5076844;28;20192;-69
2023/06/15 11:26:48;;;;;;;5.05;3.58;;;;;;;;;;5072134;28;20501;-69
2023/06/15 11:29:22;;;;;;;7.10;3.33;;;;;;;;;;5082741;28;20204;-69
2023/06/15 11:31:50;;;;;;;7.75;4.00;;;;;;;;;;5076522;28;20658;-69
2023/06/15 11:34:16;;;;;;;9.07;4.05;;;;;;;;;;5077144;28;20223;-69
2023/06/15 11:36:41;;;;;;;5.28;3.72;;;;;;;;;;5081603;28;20237;-69
2023/06/15 11:39:17;;;;;;;4.13;3.33;;;;;;;;;;5071808;28;20225;-69
2023/06/15 11:41:47;;;;;;;5.63;3.70;;;;;;;;;;5074141;28;20566;-70
2023/06/15 11:44:12;;;;;;;6.72;3.88;;;;;;;;;;5076285;28;20188;-70
2023/06/15 11:46:38;;;;;;;10.80;4.32;;;;;;;;;;5083034;28;20196;-69
2023/06/15 11:49:06;;;;;;;8.20;3.45;;;;;;;;;;5070592;28;20188;-69
2023/06/15 11:51:32;;;;;;;6.43;3.47;;;;;;;;;;5074940;28;20185;-70
2023/06/15 11:53:57;;;;;;;7.43;3.60;;;;;;;;;;5078666;28;20766;-72
2023/06/15 11:56:24;;;;;;;6.68;3.70;;;;;;;;;;5078703;28;20193;-69
2023/06/15 11:58:49;;;;;;;6.88;3.58;;;;;;;;;;5075982;28;20539;-70
2023/06/15 12:01:16;;;;;;;7.53;3.80;;;;;;;;;;5072551;28;20218;-69
2023/06/15 12:03:49;;;;;;;5.22;3.30;;;;;;;;;;5085347;28;20208;-70
2023/06/15 12:06:19;;;;;;;5.68;3.78;;;;;;;;;;5084895;28;20518;-70
2023/06/15 12:08:46;;;;;;;8.75;3.42;;;;;;;;;;5083072;28;20184;-71
2023/06/15 12:11:11;;;;;;;7.88;3.45;;;;;;;;;;5081635;28;20228;-70
2023/06/15 12:13:37;;;;;;;7.25;3.42;;;;;;;;;;5080580;28;20651;-70
2023/06/15 12:16:03;;;;;;;7.85;3.75;;;;;;;;;;5082372;28;20558;-70
2023/06/15 12:18:28;;;;;;;6.70;3.17;;;;;;;;;;5081986;28;20188;-70
2023/06/15 12:20:53;;;;;;;4.38;3.50;;;;;;;;;;5079597;28;20227;-70
2023/06/15 12:23:33;;;;;;;5.68;3.53;;;;;;;;;;5084250;28;20663;-69
2023/06/15 12:26:00;;;;;;;7.43;3.85;;;;;;;;;;5076167;28;20192;-68
2023/06/15 12:28:26;;;;;;;5.97;3.90;;;;;;;;;;5086890;28;20249;-70
2023/06/15 12:30:57;;;;;;;6.00;3.22;;;;;;;;;;5081239;28;20267;-68
2023/06/15 12:33:31;;;;;;;4.70;3.15;;;;;;;;;;5081608;28;20667;-69
2023/06/15 12:36:00;;;;;;;5.15;3.30;;;;;;;;;;5079677;28;20191;-69
2023/06/15 12:38:27;;;;;;;4.75;3.35;;;;;;;;;;5075617;28;20188;-69
2023/06/15 12:40:53;;;;;;;7.65;3.38;;;;;;;;;;5084220;28;20555;-70
2023/06/15 12:43:20;;;;;;;5.10;3.40;;;;;;;;;;5070104;28;20638;-69
2023/06/15 12:45:46;;;;;;;5.10;3.35;;;;;;;;;;5086217;28;20184;-70
2023/06/15 12:48:11;;;;;;;8.10;3.50;;;;;;;;;;5081220;28;20663;-70
2023/06/15 12:50:37;;;;;;;4.38;3.58;;;;;;;;;;5073376;28;20180;-70
2023/06/15 12:53:02;;;;;;;6.60;3.63;;;;;;;;;;5068984;28;20188;-71
2023/06/15 12:55:28;;;;;;;5.72;3.60;;;;;;;;;;5074579;28;20183;-70
2023/06/15 12:57:55;;;;;;;7.10;3.60;;;;;;;;;;5073010;28;20648;-71
2023/06/15 13:00:24;;;;;;;4.80;3.78;;;;;;;;;;5070206;28;20219;-70
2023/06/15 13:02:50;;;;;;;7.65;3.67;;;;;;;;;;5087478;28;20694;-70
2023/06/15 13:05:15;;;;;;;8.57;3.78;;;;;;;;;;5081264;28;20223;-69
2023/06/15 13:07:41;;;;;;;4.35;3.60;;;;;;;;;;5081151;28;20191;-70
2023/06/15 13:10:08;;;;;;;5.07;3.50;;;;;;;;;;5067738;28;20188;-69
2023/06/15 13:12:37;;;;;;;8.40;3.55;;;;;;;;;;5070019;28;20456;-69
2023/06/15 13:15:03;;;;;;;5.82;3.72;;;;;;;;;;5079764;28;20189;-70
2023/06/15 13:17:29;;;;;;;4.82;3.50;;;;;;;;;;5082629;28;20207;-71
2023/06/15 13:19:55;;;;;;;4.78;3.17;;;;;;;;;;5076641;28;20481;-71
2023/06/15 13:22:20;;;;;;;7.47;3.70;;;;;;;;;;5083052;28;20231;-71
2023/06/15 13:24:46;;;;;;;4.75;3.67;;;;;;;;;;5078505;28;20198;-71
2023/06/15 13:27:11;;;;;;;6.38;3.50;;;;;;;;;;5081133;28;20612;-70
2023/06/15 13:29:37;;;;;;;4.57;3.60;;;;;;;;;;5080170;28;20836;-70
2023/06/15 13:32:03;;;;;;;4.40;3.63;;;;;;;;;;5073535;28;20258;-70
2023/06/15 13:34:29;;;;;;;5.53;3.45;;;;;;;;;;5072077;28;20210;-71
2023/06/15 13:36:55;;;;;;;6.72;3.60;;;;;;;;;;5079402;28;20270;-69
2023/06/15 13:39:20;;;;;;;6.18;3.60;;;;;;;;;;5079111;28;20907;-70
2023/06/15 13:41:46;;;;;;;5.03;3.72;;;;;;;;;;5079508;28;20203;-70
2023/06/15 13:44:11;;;;;;;7.47;4.00;;;;;;;;;;5077049;28;20290;-70
2023/06/15 13:46:37;;;;;;;9.07;4.32;;;;;;;;;;5080566;28;20203;-70
2023/06/15 13:49:04;;;;;;;5.60;3.47;;;;;;;;;;5082612;28;20652;-70
2023/06/15 13:51:30;;;;;;;4.72;3.58;;;;;;;;;;5069479;28;20219;-70
2023/06/15 13:53:56;;;;;;;7.30;3.95;;;;;;;;;;5075270;28;20194;-70
2023/06/15 13:56:24;;;;;;;5.85;3.88;;;;;;;;;;5075848;28;20193;-70
2023/06/15 13:58:52;;;;;;;6.97;3.78;;;;;;;;;;5068716;28;20566;-70
2023/06/15 14:01:19;;;;;;;7.38;3.88;;;;;;;;;;5079164;28;20277;-70
2023/06/15 14:03:45;;;;;;;6.25;3.30;;;;;;;;;;5082880;28;20331;-72
2023/06/15 14:06:11;;;;;;;5.32;3.65;;;;;;;;;;5080986;28;20628;-70
2023/06/15 14:08:37;;;;;;;6.88;3.80;;;;;;;;;;5083396;28;20198;-71
2023/06/15 14:11:02;;;;;;;7.07;3.78;;;;;;;;;;5083039;28;20541;-70
2023/06/15 14:13:27;;;;;;;4.35;3.70;;;;;;;;;;5082329;28;20184;-71
2023/06/15 14:15:53;;;;;;;8.13;3.40;;;;;;;;;;5088604;28;20199;-69
2023/06/15 14:18:18;;;;;;;8.15;4.03;;;;;;;;;;5084326;28;20282;-69
2023/06/15 14:20:45;;;;;;;8.75;3.95;;;;;;;;;;5076454;28;20209;-70
2023/06/15 14:23:10;;;;;;;5.28;3.45;;;;;;;;;;5086972;28;20200;-70
2023/06/15 14:25:38;;;;;;;6.40;3.40;;;;;;;;;;5091884;28;20594;-70
2023/06/15 14:28:04;;;;;;;3.60;3.30;;;;;;;;;;5089612;28;20192;-71
2023/06/15 14:30:29;;;;;;;4.07;3.10;;;;;;;;;;5083995;28;20200;-70
2023/06/15 14:32:54;;;;;;;5.65;3.22;;;;;;;;;;5083714;28;20191;-70
2023/06/15 14:35:20;;;;;;;4.45;3.38;;;;;;;;;;5076497;28;20193;-68
2023/06/15 14:37:45;;;;;;;4.35;3.35;;;;;;;;;;5073808;28;20652;-69
2023/06/15 14:40:11;;;;;;;5.38;3.28;;;;;;;;;;5077578;28;20771;-68